Time;durP1;ratioP1;P1;durP2;ratioP2;P2;SDS_P1;SDS_P2;PMS_P1;PMS_P2;Temp;Humidity;BMP_temperature;BMP_pressure;BME280_temperature;BME280_humidity;BME280_pressure;Samples;Min_cycle;Max_cycle;Signal;HPM_P1;HPM_P2
2023/04/16 00:00:03;;;;;;;13.60;12.20;;;11.50;99.90;;;;;;4896760;29;20471;-79
2023/04/16 00:02:29;;;;;;;15.93;12.93;;;11.40;99.90;;;;;;4895902;29;20187;-79
2023/04/16 00:04:55;;;;;;;15.30;12.40;;;11.40;99.90;;;;;;4896883;29;20531;-79
2023/04/16 00:07:20;;;;;;;14.67;13.20;;;11.40;99.90;;;;;;4895481;29;20206;-79
2023/04/16 00:09:46;;;;;;;16.03;13.50;;;11.40;99.90;;;;;;4896484;29;20187;-79
2023/04/16 00:12:12;;;;;;;15.20;13.60;;;11.50;99.90;;;;;;4880272;29;20196;-79
2023/04/16 00:14:38;;;;;;;15.20;13.60;;;11.40;99.90;;;;;;4895031;29;20317;-79
2023/04/16 00:17:07;;;;;;;14.70;12.90;;;11.40;99.90;;;;;;4896445;29;20438;-78
2023/04/16 00:19:32;;;;;;;15.33;12.97;;;11.40;99.90;;;;;;4895819;29;20415;-79
2023/04/16 00:21:58;;;;;;;18.53;13.13;;;11.40;99.90;;;;;;4897224;29;20974;-79
2023/04/16 00:24:24;;;;;;;16.00;13.87;;;11.40;99.90;;;;;;4895820;29;20224;-78
2023/04/16 00:26:50;;;;;;;16.87;13.40;;;11.40;99.90;;;;;;4896938;29;20188;-78
2023/04/16 00:29:15;;;;;;;15.43;13.37;;;11.40;99.90;;;;;;4892722;29;20190;-79
2023/04/16 00:31:41;;;;;;;16.13;14.43;;;11.40;99.90;;;;;;4884493;29;20192;-79
2023/04/16 00:34:07;;;;;;;18.10;13.97;;;11.40;99.90;;;;;;4895611;29;20190;-79
2023/04/16 00:36:33;;;;;;;17.47;14.10;;;11.40;99.90;;;;;;4894922;29;20680;-79
2023/04/16 00:38:58;;;;;;;20.13;14.07;;;11.50;99.90;;;;;;4895481;29;20224;-79
2023/04/16 00:41:25;;;;;;;15.53;13.90;;;11.50;99.90;;;;;;4894649;29;20419;-79
2023/04/16 00:43:52;;;;;;;16.53;14.27;;;11.50;99.90;;;;;;4895418;29;20207;-79
2023/04/16 00:46:22;;;;;;;16.40;14.07;;;11.40;99.90;;;;;;4894553;29;20425;-79
2023/04/16 00:48:50;;;;;;;19.27;13.60;;;11.30;99.90;;;;;;4895341;29;20428;-79
2023/04/16 00:51:17;;;;;;;17.60;14.47;;;11.30;99.90;;;;;;4886556;29;20411;-79
2023/04/16 00:53:45;;;;;;;17.53;15.00;;;11.30;99.90;;;;;;4894585;29;20439;-79
2023/04/16 00:56:11;;;;;;;19.53;14.67;;;11.30;99.90;;;;;;4892133;29;20472;-79
2023/04/16 00:58:38;;;;;;;17.07;14.87;;;11.40;99.90;;;;;;4885440;29;21121;-79
2023/04/16 01:01:04;;;;;;;20.43;14.90;;;11.30;99.90;;;;;;4895423;29;20475;-79
2023/04/16 01:03:40;;;;;;;18.17;14.17;;;11.30;99.90;;;;;;4897094;29;20462;-79
2023/04/16 01:06:06;;;;;;;20.03;16.03;;;11.30;99.90;;;;;;4895804;29;20439;-77
2023/04/16 01:08:32;;;;;;;16.80;14.70;;;11.30;99.90;;;;;;4898171;29;20458;-78
2023/04/16 01:10:58;;;;;;;18.40;15.87;;;11.30;99.90;;;;;;4898634;29;20838;-77
2023/04/16 01:13:24;;;;;;;21.27;16.17;;;11.30;99.90;;;;;;4897975;29;20520;-77
2023/04/16 01:15:51;;;;;;;18.37;14.83;;;11.30;99.90;;;;;;4899672;29;20176;-78
2023/04/16 01:18:18;;;;;;;25.30;17.00;;;11.30;99.90;;;;;;4898900;29;20459;-78
2023/04/16 01:20:45;;;;;;;21.73;15.70;;;11.30;99.90;;;;;;4898533;29;20942;-78
2023/04/16 01:23:11;;;;;;;20.70;16.90;;;11.30;99.90;;;;;;4896790;29;20457;-77
2023/04/16 01:25:38;;;;;;;21.87;16.77;;;11.30;99.90;;;;;;4898875;29;20462;-77
2023/04/16 01:28:04;;;;;;;21.23;16.37;;;11.30;99.90;;;;;;4899468;29;20428;-78
2023/04/16 01:30:30;;;;;;;20.87;16.00;;;11.30;99.90;;;;;;4899365;29;20411;-79
2023/04/16 01:32:56;;;;;;;21.47;15.70;;;11.30;99.90;;;;;;4899701;29;20941;-78
2023/04/16 01:35:23;;;;;;;20.90;15.50;;;11.30;99.90;;;;;;4907393;29;20197;-78
2023/04/16 01:37:50;;;;;;;21.80;15.67;;;11.30;99.90;;;;;;4915940;29;20758;-78
2023/04/16 01:40:21;;;;;;;18.40;15.40;;;11.40;99.90;;;;;;4900077;29;20423;-78
2023/04/16 01:42:47;;;;;;;18.10;14.40;;;11.40;99.90;;;;;;4899510;29;20457;-78
2023/04/16 01:45:13;;;;;;;18.90;15.23;;;11.40;99.90;;;;;;4899411;29;21004;-78
2023/04/16 01:47:39;;;;;;;16.53;14.27;;;11.30;99.90;;;;;;4898793;29;20190;-78
2023/04/16 01:50:06;;;;;;;18.63;15.50;;;11.30;99.90;;;;;;4899607;29;20547;-78
2023/04/16 01:52:31;;;;;;;16.87;14.57;;;11.30;99.90;;;;;;4898482;29;20435;-78
2023/04/16 01:54:57;;;;;;;18.43;14.60;;;11.40;99.90;;;;;;4899295;29;20921;-78
2023/04/16 01:57:23;;;;;;;16.90;14.57;;;11.30;99.90;;;;;;4899026;29;20617;-78
2023/04/16 01:59:48;;;;;;;18.03;15.17;;;11.30;99.90;;;;;;4899052;29;20195;-78
2023/04/16 02:02:15;;;;;;;20.10;15.90;;;11.30;99.90;;;;;;4899341;29;20246;-78
2023/04/16 02:04:43;;;;;;;25.37;15.47;;;11.30;99.90;;;;;;4898696;29;20351;-78
2023/04/16 02:07:10;;;;;;;18.67;15.07;;;11.30;99.90;;;;;;4895684;29;20664;-78
2023/04/16 02:09:38;;;;;;;16.00;13.90;;;11.30;99.90;;;;;;4896324;29;20443;-78
2023/04/16 02:12:04;;;;;;;18.10;15.13;;;11.30;99.90;;;;;;4897984;29;20525;-78
2023/04/16 02:14:31;;;;;;;21.00;15.60;;;11.20;99.90;;;;;;4896830;29;20827;-78
2023/04/16 02:16:57;;;;;;;17.10;15.03;;;11.20;99.90;;;;;;4896903;29;20960;-78
2023/04/16 02:19:23;;;;;;;21.97;16.17;;;11.20;99.90;;;;;;4890697;29;20432;-79
2023/04/16 02:21:50;;;;;;;18.57;15.60;;;11.20;99.90;;;;;;4893466;29;20559;-78
2023/04/16 02:24:16;;;;;;;22.43;16.20;;;11.20;99.90;;;;;;4897944;29;20217;-78
2023/04/16 02:26:42;;;;;;;19.33;14.70;;;11.20;99.90;;;;;;4897338;29;20419;-78
2023/04/16 02:29:08;;;;;;;19.90;14.90;;;11.20;99.90;;;;;;4897555;29;20202;-78
2023/04/16 02:31:33;;;;;;;18.97;15.40;;;11.20;99.90;;;;;;4897041;29;20194;-78
2023/04/16 02:33:59;;;;;;;20.63;15.87;;;11.10;99.90;;;;;;4881790;29;20642;-79
2023/04/16 02:36:26;;;;;;;19.33;16.60;;;11.20;99.90;;;;;;4897336;29;20182;-78
2023/04/16 02:38:52;;;;;;;20.57;16.37;;;11.20;99.90;;;;;;4897636;29;20195;-78
2023/04/16 02:41:17;;;;;;;23.13;17.53;;;11.10;99.90;;;;;;4898307;29;20433;-78
2023/04/16 02:43:43;;;;;;;20.93;16.70;;;11.20;99.90;;;;;;4896707;29;20568;-78
2023/04/16 02:46:09;;;;;;;20.50;16.50;;;11.20;99.90;;;;;;4897572;29;20180;-78
2023/04/16 02:48:35;;;;;;;19.97;16.43;;;11.20;99.90;;;;;;4896190;29;20245;-78
2023/04/16 02:51:00;;;;;;;21.73;16.40;;;11.20;99.90;;;;;;4897880;29;20190;-78
2023/04/16 02:53:26;;;;;;;19.57;16.33;;;11.10;99.90;;;;;;4879860;29;20193;-78
2023/04/16 02:55:54;;;;;;;20.87;15.20;;;11.10;99.90;;;;;;4897885;29;20220;-78
2023/04/16 02:58:25;;;;;;;22.50;16.70;;;11.10;99.90;;;;;;4896562;29;20235;-78
2023/04/16 03:00:52;;;;;;;19.47;15.83;;;11.10;99.90;;;;;;4895643;29;20450;-79
2023/04/16 03:03:18;;;;;;;19.30;16.43;;;11.20;99.90;;;;;;4897379;29;20566;-79
2023/04/16 03:05:44;;;;;;;20.70;16.93;;;11.20;99.90;;;;;;4897002;29;20951;-78
2023/04/16 03:08:10;;;;;;;21.10;16.43;;;11.20;99.90;;;;;;4897731;29;20426;-78
2023/04/16 03:10:36;;;;;;;20.73;17.00;;;11.20;99.90;;;;;;4897308;29;20798;-78
2023/04/16 03:13:02;;;;;;;25.87;16.40;;;11.20;99.90;;;;;;4897638;29;20443;-78
2023/04/16 03:15:28;;;;;;;19.53;16.33;;;11.20;99.90;;;;;;4897609;29;20424;-78
2023/04/16 03:17:55;;;;;;;25.30;17.90;;;11.20;99.90;;;;;;4897521;29;20788;-78
2023/04/16 03:20:21;;;;;;;23.40;17.90;;;11.20;99.90;;;;;;4897624;29;20441;-78
2023/04/16 03:22:46;;;;;;;19.73;16.13;;;11.30;99.90;;;;;;4897068;29;20458;-78
2023/04/16 03:25:12;;;;;;;23.33;17.20;;;11.30;99.90;;;;;;4897009;29;20544;-79
2023/04/16 03:27:38;;;;;;;23.97;18.60;;;11.30;99.90;;;;;;4896643;29;20240;-79
2023/04/16 03:30:11;;;;;;;24.43;18.20;;;11.40;99.90;;;;;;4897561;29;20439;-78
2023/04/16 03:32:37;;;;;;;26.30;17.33;;;11.40;99.90;;;;;;4896998;29;20415;-78
2023/04/16 03:35:05;;;;;;;23.70;17.33;;;11.40;99.90;;;;;;4897137;29;20458;-79
2023/04/16 03:37:30;;;;;;;24.80;18.10;;;11.40;99.90;;;;;;4888087;29;20434;-79
2023/04/16 03:39:56;;;;;;;23.40;18.20;;;11.40;99.90;;;;;;4897301;29;20442;-79
2023/04/16 03:42:22;;;;;;;23.53;18.40;;;11.40;99.90;;;;;;4897074;29;20519;-79
2023/04/16 03:44:48;;;;;;;23.23;18.77;;;11.40;99.90;;;;;;4896200;29;20466;-78
2023/04/16 03:47:13;;;;;;;22.33;18.10;;;11.50;99.90;;;;;;4897042;29;20197;-78
2023/04/16 03:49:39;;;;;;;24.30;18.93;;;11.40;99.90;;;;;;4896681;29;20210;-78
2023/04/16 03:52:05;;;;;;;24.60;17.77;;;11.40;99.90;;;;;;4897009;29;20189;-78
2023/04/16 03:54:31;;;;;;;23.43;18.80;;;11.40;99.90;;;;;;4866725;29;20224;-79
2023/04/16 03:56:56;;;;;;;21.60;17.27;;;11.40;99.90;;;;;;4880381;29;20233;-79
2023/04/16 03:59:22;;;;;;;20.73;17.50;;;11.40;99.90;;;;;;4897018;29;20179;-78
2023/04/16 04:01:50;;;;;;;22.77;18.73;;;11.40;99.90;;;;;;4896305;29;20193;-78
2023/04/16 04:04:16;;;;;;;23.30;18.00;;;11.40;99.90;;;;;;4897077;29;20466;-78
2023/04/16 04:06:44;;;;;;;22.30;18.17;;;11.40;99.90;;;;;;4896640;29;20188;-78
2023/04/16 04:09:10;;;;;;;25.10;18.70;;;11.40;99.90;;;;;;4879891;29;20552;-78
2023/04/16 04:11:36;;;;;;;26.80;18.97;;;11.40;99.90;;;;;;4896209;29;20435;-78
2023/04/16 04:14:01;;;;;;;21.53;17.93;;;11.50;99.90;;;;;;4897285;29;20284;-78
2023/04/16 04:16:27;;;;;;;22.77;18.13;;;11.50;99.90;;;;;;4897281;29;20193;-78
2023/04/16 04:18:54;;;;;;;23.47;19.90;;;11.50;99.90;;;;;;4896020;29;20184;-79
2023/04/16 04:21:20;;;;;;;23.50;19.30;;;11.50;99.90;;;;;;4896687;29;20244;-78
2023/04/16 04:23:45;;;;;;;24.00;18.47;;;11.50;99.90;;;;;;4895879;29;20943;-78
2023/04/16 04:26:11;;;;;;;22.00;17.70;;;11.50;99.90;;;;;;4896929;29;20201;-78
2023/04/16 04:28:37;;;;;;;25.70;18.77;;;11.60;99.90;;;;;;4895994;29;20187;-78
2023/04/16 04:31:03;;;;;;;27.33;18.47;;;11.60;99.90;;;;;;4897161;29;20281;-78
2023/04/16 04:33:28;;;;;;;23.27;19.40;;;11.60;99.90;;;;;;4891813;29;20219;-79
2023/04/16 04:35:54;;;;;;;23.33;17.43;;;11.60;99.90;;;;;;4895813;29;20186;-78
2023/04/16 04:38:24;;;;;;;27.27;19.90;;;11.60;99.90;;;;;;4883131;29;20182;-78
2023/04/16 04:40:51;;;;;;;27.53;19.30;;;11.60;99.90;;;;;;4899283;29;20199;-79
2023/04/16 04:43:20;;;;;;;26.90;19.43;;;11.50;99.90;;;;;;4900240;29;20486;-79
2023/04/16 04:45:46;;;;;;;29.63;19.13;;;11.60;99.90;;;;;;4899341;29;20411;-78
2023/04/16 04:48:12;;;;;;;29.10;20.87;;;11.50;99.90;;;;;;4882562;29;20442;-80
2023/04/16 04:50:39;;;;;;;26.30;19.77;;;11.50;99.90;;;;;;4897375;29;20457;-78
2023/04/16 04:53:08;;;;;;;31.73;20.63;;;11.50;99.90;;;;;;4898268;29;20529;-78
2023/04/16 04:55:36;;;;;;;28.80;20.80;;;11.50;99.90;;;;;;4899524;29;20432;-78
2023/04/16 04:58:05;;;;;;;33.13;20.90;;;11.50;99.90;;;;;;4899801;29;20435;-78
2023/04/16 05:00:33;;;;;;;27.60;19.90;;;11.60;99.90;;;;;;4882877;29;20536;-78
2023/04/16 05:03:03;;;;;;;32.27;20.30;;;11.60;99.90;;;;;;4899198;29;20431;-78
2023/04/16 05:05:29;;;;;;;32.43;21.40;;;11.60;99.90;;;;;;4900275;29;20523;-78
2023/04/16 05:07:55;;;;;;;27.37;20.97;;;11.60;99.90;;;;;;4899958;29;20840;-78
2023/04/16 05:10:20;;;;;;;31.30;20.70;;;11.60;99.90;;;;;;4882340;29;20433;-79
2023/04/16 05:12:47;;;;;;;25.47;19.80;;;11.60;99.90;;;;;;4899356;29;20435;-78
2023/04/16 05:15:13;;;;;;;28.60;21.73;;;11.50;99.90;;;;;;4899685;29;20209;-78
2023/04/16 05:17:39;;;;;;;30.00;22.03;;;11.50;99.90;;;;;;4898732;29;20961;-78
2023/04/16 05:20:06;;;;;;;32.77;22.70;;;11.50;99.90;;;;;;4896448;29;20428;-78
2023/04/16 05:22:32;;;;;;;30.47;21.83;;;11.60;99.90;;;;;;4897636;29;20434;-78
2023/04/16 05:24:57;;;;;;;28.23;22.07;;;11.50;99.90;;;;;;4899607;29;20821;-79
2023/04/16 05:27:23;;;;;;;27.97;21.93;;;11.60;99.90;;;;;;4899151;29;20553;-78
2023/04/16 05:29:49;;;;;;;34.23;22.57;;;11.60;99.90;;;;;;4888659;29;20188;-78
2023/04/16 05:32:15;;;;;;;35.77;22.03;;;11.50;99.90;;;;;;4898263;29;20177;-78
2023/04/16 05:34:43;;;;;;;32.80;22.07;;;11.60;99.90;;;;;;4881717;29;20448;-78
2023/04/16 05:37:09;;;;;;;27.43;22.43;;;11.70;99.90;;;;;;4899332;29;20190;-79
2023/04/16 05:39:35;;;;;;;27.83;21.80;;;11.60;99.90;;;;;;4898505;29;20777;-78
2023/04/16 05:42:01;;;;;;;31.83;22.17;;;11.60;99.90;;;;;;4899183;29;20197;-78
2023/04/16 05:44:26;;;;;;;29.40;21.73;;;11.60;99.90;;;;;;4899691;29;20222;-78
2023/04/16 05:46:52;;;;;;;29.27;21.87;;;11.60;99.90;;;;;;4898481;29;20249;-78
2023/04/16 05:49:18;;;;;;;28.43;21.50;;;11.70;99.90;;;;;;4881673;29;20183;-78
2023/04/16 05:51:44;;;;;;;25.00;21.30;;;11.70;99.90;;;;;;4898144;29;20276;-78
2023/04/16 05:54:10;;;;;;;30.40;23.20;;;11.60;99.90;;;;;;4898484;29;20444;-78
2023/04/16 05:56:36;;;;;;;30.53;22.30;;;11.60;99.90;;;;;;4880550;29;20832;-76
2023/04/16 05:59:02;;;;;;;33.27;23.10;;;11.60;99.90;;;;;;4898149;29;20194;-88
2023/04/16 06:01:27;;;;;;;35.50;24.03;;;11.60;99.90;;;;;;4893791;29;20188;-78
2023/04/16 06:03:53;;;;;;;35.63;24.63;;;11.60;99.90;;;;;;4895524;29;20662;-78
2023/04/16 06:06:19;;;;;;;35.70;23.07;;;11.70;99.90;;;;;;4897624;29;20188;-77
2023/04/16 06:08:44;;;;;;;32.13;23.77;;;11.60;99.90;;;;;;4896119;29;20257;-77
2023/04/16 06:11:11;;;;;;;30.37;21.73;;;11.70;99.90;;;;;;4897242;29;20192;-76
2023/04/16 06:13:38;;;;;;;30.10;21.90;;;11.60;99.90;;;;;;4898007;29;20617;-77
2023/04/16 06:16:04;;;;;;;26.40;20.93;;;11.60;99.90;;;;;;4898504;29;20792;-78
2023/04/16 06:18:30;;;;;;;33.87;22.63;;;11.60;99.90;;;;;;4897583;29;20434;-78
2023/04/16 06:20:57;;;;;;;32.10;23.50;;;11.60;99.90;;;;;;4897066;29;20438;-78
2023/04/16 06:23:23;;;;;;;36.10;24.00;;;11.60;99.90;;;;;;4898393;29;20314;-79
2023/04/16 06:25:49;;;;;;;34.70;23.17;;;11.60;99.90;;;;;;4896996;29;20558;-79
2023/04/16 06:28:15;;;;;;;36.63;24.60;;;11.60;99.90;;;;;;4897870;29;20431;-79
2023/04/16 06:30:40;;;;;;;30.53;23.77;;;11.60;99.90;;;;;;4897358;29;20254;-79
2023/04/16 06:33:06;;;;;;;30.67;22.40;;;11.70;99.90;;;;;;4898906;29;20195;-78
2023/04/16 06:35:32;;;;;;;29.77;23.50;;;11.70;99.90;;;;;;4898456;29;20179;-78
2023/04/16 06:37:57;;;;;;;28.33;22.67;;;11.70;99.90;;;;;;4896000;29;20183;-78
2023/04/16 06:40:23;;;;;;;29.70;23.37;;;11.70;99.90;;;;;;4898395;29;20654;-79
2023/04/16 06:42:49;;;;;;;29.43;22.33;;;11.80;99.90;;;;;;4896591;29;20182;-76
2023/04/16 06:45:15;;;;;;;34.37;23.10;;;11.80;99.90;;;;;;4897302;29;20192;-79
2023/04/16 06:47:41;;;;;;;28.60;22.30;;;11.80;99.90;;;;;;4897591;29;20880;-77
2023/04/16 06:50:07;;;;;;;30.60;23.40;;;11.80;99.90;;;;;;4896178;29;20193;-78
2023/04/16 06:52:33;;;;;;;31.63;22.43;;;11.80;99.90;;;;;;4897065;29;20522;-79
2023/04/16 06:54:59;;;;;;;28.90;21.80;;;11.80;99.90;;;;;;4896933;29;20838;-79
2023/04/16 06:57:25;;;;;;;33.10;23.40;;;11.80;99.90;;;;;;4897371;29;20228;-80
2023/04/16 06:59:50;;;;;;;26.30;20.93;;;11.90;99.90;;;;;;4891687;29;20179;-78
2023/04/16 07:02:16;;;;;;;26.97;22.67;;;11.90;99.90;;;;;;4896443;29;20312;-79
2023/04/16 07:04:42;;;;;;;28.07;23.10;;;11.90;99.90;;;;;;4895030;29;20732;-78
2023/04/16 07:07:07;;;;;;;26.47;22.13;;;11.90;99.90;;;;;;4896964;29;20601;-78
2023/04/16 07:09:33;;;;;;;33.30;25.43;;;12.00;99.90;;;;;;4897102;29;20195;-79
2023/04/16 07:11:59;;;;;;;27.83;21.67;;;12.00;99.90;;;;;;4897182;29;20899;-80
2023/04/16 07:14:25;;;;;;;27.97;22.60;;;12.00;99.90;;;;;;4895421;29;20642;-79
2023/04/16 07:16:51;;;;;;;28.90;21.80;;;12.10;99.90;;;;;;4891731;29;20446;-80
2023/04/16 07:19:16;;;;;;;31.80;23.83;;;12.10;99.90;;;;;;4897018;29;20178;-79
2023/04/16 07:21:43;;;;;;;30.00;21.90;;;12.10;99.90;;;;;;4896344;29;20569;-78
2023/04/16 07:24:11;;;;;;;32.30;21.83;;;12.10;99.90;;;;;;4897172;29;20679;-80
2023/04/16 07:26:37;;;;;;;31.30;23.80;;;12.10;99.90;;;;;;4897710;29;20423;-79
2023/04/16 07:29:03;;;;;;;29.90;22.73;;;12.10;99.90;;;;;;4894367;29;20433;-79
2023/04/16 07:31:29;;;;;;;31.67;22.97;;;12.10;99.90;;;;;;4896708;29;20264;-79
2023/04/16 07:33:54;;;;;;;35.03;23.97;;;12.10;99.90;;;;;;4892027;29;20186;-79
2023/04/16 07:36:20;;;;;;;29.73;23.33;;;12.10;99.90;;;;;;4880254;29;20185;-80
2023/04/16 07:38:46;;;;;;;33.73;23.00;;;12.10;99.90;;;;;;4895228;29;20235;-80
2023/04/16 07:41:12;;;;;;;28.53;22.97;;;12.10;99.90;;;;;;4895544;29;20703;-79
2023/04/16 07:43:38;;;;;;;28.47;22.90;;;12.20;99.90;;;;;;4894490;29;20220;-79
2023/04/16 07:46:03;;;;;;;30.87;24.13;;;12.20;99.90;;;;;;4890810;29;20450;-79
2023/04/16 07:48:29;;;;;;;29.73;23.20;;;12.20;99.90;;;;;;4893665;29;20667;-80
2023/04/16 07:50:55;;;;;;;29.93;23.27;;;12.20;99.90;;;;;;4896680;29;20432;-80
2023/04/16 07:53:21;;;;;;;28.40;24.00;;;12.20;99.90;;;;;;4895171;29;20605;-80
2023/04/16 07:55:47;;;;;;;36.33;25.10;;;12.20;99.90;;;;;;4895859;29;20458;-79
2023/04/16 07:58:12;;;;;;;31.73;23.40;;;12.20;99.90;;;;;;4880689;29;20238;-80
2023/04/16 08:00:39;;;;;;;38.13;24.27;;;12.20;99.90;;;;;;4896586;29;20547;-80
2023/04/16 08:03:05;;;;;;;31.23;24.00;;;12.20;99.90;;;;;;4891915;29;20195;-80
2023/04/16 08:05:30;;;;;;;30.93;25.67;;;12.20;99.90;;;;;;4895357;29;20803;-79
2023/04/16 08:07:56;;;;;;;35.20;24.20;;;12.20;99.90;;;;;;4895859;29;20187;-80
2023/04/16 08:10:23;;;;;;;29.37;24.60;;;12.20;99.90;;;;;;4895885;29;20545;-79
2023/04/16 08:12:49;;;;;;;29.80;23.63;;;12.20;99.90;;;;;;4881309;29;20427;-79
2023/04/16 08:15:18;;;;;;;29.87;23.70;;;12.20;99.90;;;;;;4903243;29;20526;-80
2023/04/16 08:17:44;;;;;;;33.30;23.87;;;12.20;99.90;;;;;;4902607;29;20431;-79
2023/04/16 08:20:10;;;;;;;33.57;25.40;;;12.30;99.90;;;;;;4902409;29;20701;-79
2023/04/16 08:22:36;;;;;;;29.37;22.67;;;12.30;99.90;;;;;;4902054;29;20265;-80
2023/04/16 08:25:03;;;;;;;31.80;23.93;;;12.30;99.90;;;;;;4904543;29;20589;-90
2023/04/16 08:27:28;;;;;;;30.20;24.23;;;12.30;99.90;;;;;;4888018;29;20186;-87
2023/04/16 08:29:54;;;;;;;32.50;25.77;;;12.40;99.90;;;;;;4884425;29;20947;-83
2023/04/16 08:32:20;;;;;;;28.63;23.70;;;13.20;99.90;;;;;;4903013;29;20181;-82
2023/04/16 08:34:46;;;;;;;33.73;25.80;;;13.50;99.90;;;;;;4895352;29;20191;-82
2023/04/16 08:37:12;;;;;;;27.63;23.57;;;13.80;99.90;;;;;;4893372;29;20527;-82
2023/04/16 08:39:37;;;;;;;27.97;24.20;;;14.20;99.90;;;;;;4903064;29;20174;-82
2023/04/16 08:42:31;;;;;;;25.50;22.80;;;14.50;99.90;;;;;;4902307;29;20183;-83
2023/04/16 08:45:07;;;;;;;27.40;24.37;;;14.70;99.90;;;;;;4899329;29;20231;-82
2023/04/16 08:47:37;;;;;;;25.70;22.93;;;15.00;99.90;;;;;;4901932;29;20466;-82
2023/04/16 08:50:07;;;;;;;27.73;24.10;;;15.20;99.90;;;;;;4902305;29;20510;-82
2023/04/16 08:52:38;;;;;;;25.40;22.40;;;15.40;99.90;;;;;;4902198;29;20447;-83
2023/04/16 08:55:08;;;;;;;29.00;23.53;;;15.50;99.90;;;;;;4901673;29;20424;-83
2023/04/16 08:57:41;;;;;;;26.57;23.47;;;15.60;99.90;;;;;;4902705;29;20474;-80
2023/04/16 09:00:08;;;;;;;26.90;23.83;;;15.70;99.90;;;;;;4901711;29;21396;-82
2023/04/16 09:02:34;;;;;;;26.53;23.83;;;15.80;99.90;;;;;;4902737;29;20426;-81
2023/04/16 09:05:05;;;;;;;29.00;23.40;;;15.90;99.90;;;;;;4902194;29;20480;-80
2023/04/16 09:07:32;;;;;;;26.40;23.60;;;16.00;99.90;;;;;;4882571;29;20442;-79
2023/04/16 09:09:59;;;;;;;29.90;23.13;;;16.10;99.90;;;;;;4901898;29;20442;-80
2023/04/16 09:12:25;;;;;;;25.90;23.17;;;16.10;99.90;;;;;;4903270;29;20468;-81
2023/04/16 09:14:51;;;;;;;26.40;23.60;;;16.20;99.90;;;;;;4900627;29;20444;-80
2023/04/16 09:17:18;;;;;;;26.00;22.87;;;16.30;99.90;;;;;;4902287;29;20446;-80
2023/04/16 09:19:45;;;;;;;27.53;21.90;;;16.40;99.90;;;;;;4901686;29;20461;-81
2023/04/16 09:22:11;;;;;;;28.20;23.97;;;16.50;99.90;;;;;;4900831;29;20436;-81
2023/04/16 09:24:40;;;;;;;25.60;22.30;;;16.50;99.90;;;;;;4895306;29;20482;-80
2023/04/16 09:27:07;;;;;;;43.00;35.40;;;16.60;99.90;;;;;;4898951;29;20490;-81
2023/04/16 09:29:38;;;;;;;60.43;44.53;;;16.70;99.90;;;;;;4899825;29;20410;-80
2023/04/16 09:32:06;;;;;;;30.93;26.70;;;16.90;99.90;;;;;;4898780;29;20458;-82
2023/04/16 09:34:33;;;;;;;200.93;133.23;;;17.00;99.90;;;;;;4895241;29;20446;-82
2023/04/16 09:37:17;;;;;;;34.53;30.37;;;17.10;99.90;;;;;;4895580;29;20446;-92
2023/04/16 09:39:44;;;;;;;26.70;23.80;;;17.00;99.90;;;;;;4899652;29;20478;-93
2023/04/16 09:42:10;;;;;;;26.77;23.87;;;16.80;99.90;;;;;;4900329;29;20469;-93
2023/04/16 09:44:37;;;;;;;26.07;22.47;;;16.60;99.90;;;;;;4900481;29;20466;-93
2023/04/16 09:47:08;;;;;;;28.17;23.97;;;16.30;99.90;;;;;;4898388;29;20429;-89
2023/04/16 09:49:37;;;;;;;28.23;24.70;;;16.00;99.90;;;;;;4900183;29;20453;-88
2023/04/16 09:52:13;;;;;;;27.67;24.87;;;15.70;99.90;;;;;;4879142;29;20437;-86
2023/04/16 09:54:45;;;;;;;29.20;24.80;;;15.50;99.90;;;;;;4905804;29;20412;-88
2023/04/16 09:57:11;;;;;;;27.23;24.33;;;15.30;99.90;;;;;;4877205;29;21008;-87
2023/04/16 09:59:37;;;;;;;27.57;23.50;;;15.10;99.90;;;;;;4884142;29;20444;-86
2023/04/16 10:02:03;;;;;;;26.50;23.70;;;14.90;99.90;;;;;;4880831;29;20467;-86
2023/04/16 10:04:28;;;;;;;93.07;58.77;;;14.80;99.90;;;;;;4891121;29;20306;-79
2023/04/16 10:07:06;;;;;;;32.03;27.17;;;14.70;99.90;;;;;;4883077;29;20184;-82
2023/04/16 10:09:36;;;;;;;28.67;24.93;;;14.60;99.90;;;;;;4877412;29;20202;-82
2023/04/16 10:12:02;;;;;;;30.83;25.20;;;14.50;99.90;;;;;;4877815;29;20428;-91
2023/04/16 10:14:28;;;;;;;30.50;24.63;;;14.50;99.90;;;;;;4880022;29;20444;-78
2023/04/16 10:16:55;;;;;;;35.10;26.33;;;14.50;99.90;;;;;;4878241;29;20531;-78
2023/04/16 10:19:21;;;;;;;31.80;24.70;;;14.40;99.90;;;;;;4878106;29;20188;-78
2023/04/16 10:21:47;;;;;;;30.83;25.73;;;14.30;99.90;;;;;;4877856;29;20467;-79
2023/04/16 10:24:15;;;;;;;50.80;27.33;;;14.30;99.90;;;;;;4877819;29;21019;-78
2023/04/16 10:26:41;;;;;;;32.00;26.87;;;14.30;99.90;;;;;;4879672;29;20435;-79
2023/04/16 10:29:08;;;;;;;32.97;27.20;;;14.10;99.90;;;;;;4878712;29;20432;-79
2023/04/16 10:31:38;;;;;;;30.10;24.90;;;14.10;99.90;;;;;;4880039;29;20420;-78
2023/04/16 10:34:05;;;;;;;31.00;25.83;;;14.10;99.90;;;;;;4878184;29;20892;-78
2023/04/16 10:36:36;;;;;;;30.60;24.47;;;14.10;99.90;;;;;;4879420;29;20427;-78
2023/04/16 10:39:01;;;;;;;28.57;24.67;;;14.00;99.90;;;;;;4879161;29;20416;-78
2023/04/16 10:41:27;;;;;;;29.10;24.73;;;14.10;99.90;;;;;;4878752;29;20440;-79
2023/04/16 10:44:08;;;;;;;29.07;25.33;;;14.10;99.90;;;;;;4877252;29;20219;-79
2023/04/16 10:46:40;;;;;;;29.17;24.53;;;14.10;99.90;;;;;;4881558;29;20924;-79
2023/04/16 10:49:15;;;;;;;29.73;24.13;;;14.30;99.90;;;;;;4878512;29;20792;-80
2023/04/16 10:51:40;;;;;;;27.23;23.70;;;14.40;99.90;;;;;;4876332;29;21200;-77
2023/04/16 10:54:13;;;;;;;27.83;22.47;;;14.40;99.90;;;;;;4876948;29;20472;-77
2023/04/16 10:56:39;;;;;;;29.73;23.53;;;14.50;99.90;;;;;;4885812;29;20229;-78
2023/04/16 10:59:06;;;;;;;29.33;23.50;;;14.50;99.90;;;;;;4893521;29;20547;-77
2023/04/16 11:01:43;;;;;;;29.83;24.23;;;14.50;99.90;;;;;;4896194;29;20467;-79
2023/04/16 11:04:18;;;;;;;27.00;24.13;;;14.40;99.90;;;;;;4878919;29;20455;-79
2023/04/16 11:07:00;;;;;;;152.00;95.67;;;14.30;99.90;;;;;;4897710;29;20419;-77
2023/04/16 11:09:50;;;;;;;480.07;325.17;;;14.30;99.90;;;;;;4896712;29;20538;-79
2023/04/16 11:12:37;;;;;;;45.53;33.73;;;14.30;99.90;;;;;;4895746;29;20469;-77
2023/04/16 11:15:07;;;;;;;30.53;24.30;;;14.40;99.90;;;;;;4893574;29;20979;-77
2023/04/16 11:17:40;;;;;;;27.80;24.50;;;14.50;99.90;;;;;;4897137;29;20441;-77
2023/04/16 11:20:17;;;;;;;27.73;24.03;;;14.50;99.90;;;;;;4891609;29;20489;-79
2023/04/16 11:22:46;;;;;;;26.27;23.47;;;14.50;99.90;;;;;;4898003;29;20802;-79
2023/04/16 11:25:12;;;;;;;32.70;26.00;;;14.40;99.90;;;;;;4895614;29;20470;-79
2023/04/16 11:27:38;;;;;;;27.20;24.23;;;14.50;99.90;;;;;;4896344;29;20916;-81
2023/04/16 11:30:08;;;;;;;29.53;24.47;;;14.50;99.90;;;;;;4896443;29;20210;-80
2023/04/16 11:32:36;;;;;;;27.13;24.20;;;14.50;99.90;;;;;;4897384;29;20191;-80
2023/04/16 11:35:11;;;;;;;300.87;209.90;;;14.50;99.90;;;;;;4880036;29;20753;-79
2023/04/16 11:37:37;;;;;;;360.90;238.40;;;14.50;99.90;;;;;;4878988;29;20459;-80
2023/04/16 11:40:11;;;;;;;42.40;34.23;;;14.50;99.90;;;;;;4890629;29;21018;-80
2023/04/16 11:42:39;;;;;;;27.60;24.00;;;14.60;99.90;;;;;;4894799;29;20439;-79
2023/04/16 11:45:10;;;;;;;25.67;22.87;;;14.60;99.90;;;;;;4894793;29;20475;-78
2023/04/16 11:47:50;;;;;;;28.67;22.70;;;14.60;99.90;;;;;;4896076;29;20514;-78
2023/04/16 11:50:19;;;;;;;25.70;21.83;;;14.60;99.90;;;;;;4895800;29;20440;-78
2023/04/16 11:52:46;;;;;;;27.93;22.53;;;14.70;99.90;;;;;;4895059;29;20933;-78
2023/04/16 11:55:12;;;;;;;25.07;22.40;;;14.70;99.90;;;;;;4895173;29;20435;-79
2023/04/16 11:57:38;;;;;;;27.70;23.10;;;14.70;99.90;;;;;;4889754;29;20643;-78
2023/04/16 12:00:05;;;;;;;16.60;14.67;;;14.70;99.90;;;;;;4888369;29;20699;-85
2023/04/16 12:02:45;;;;;;;22.87;18.93;;;14.80;99.90;;;;;;4875938;29;20192;-80
2023/04/16 12:05:37;;;;;;;26.07;23.33;;;15.10;99.90;;;;;;4895447;29;20465;-81
2023/04/16 12:08:08;;;;;;;24.93;22.33;;;15.50;99.90;;;;;;4889493;29;20435;-82
2023/04/16 12:10:37;;;;;;;24.47;21.97;;;15.80;99.90;;;;;;4876188;29;20978;-82
2023/04/16 12:13:14;;;;;;;24.93;22.00;;;16.10;99.90;;;;;;4896171;29;20474;-83
2023/04/16 12:15:51;;;;;;;24.73;22.00;;;16.40;99.90;;;;;;4879973;29;20581;-80
2023/04/16 12:18:18;;;;;;;23.70;21.20;;;16.60;99.90;;;;;;4896245;29;20445;-79
2023/04/16 12:20:45;;;;;;;22.20;19.80;;;16.60;99.90;;;;;;4896967;29;20435;-79
2023/04/16 12:23:28;;;;;;;23.27;20.77;;;16.40;99.90;;;;;;4887034;29;20428;-80
2023/04/16 12:25:54;;;;;;;23.10;20.37;;;16.30;99.90;;;;;;4886715;29;20439;-82